Impacts TAF Board INFO
FOR SITUATIONAL AWARENESS. NOT TO BE USED FOR FLIGHT PLANNING PURPOSES.
IDs:

KDEN - Denver Intl, CO, US

Issued at 0107 UTC 28 May 2018
Updated at 0136 UTC 28 May 2018
Potential Impact None Slight Moderate High
Time0053Z 28/02Z 28/03Z 28/04Z 28/05Z 28/06Z 28/07Z 28/08Z 28/09Z 28/10Z 28/11Z 28/12Z 28/13Z 28/14Z>>
Type OBS PRVL PRVL PRVL PRVL PRVL PRVL PRVL PRVL PRVL PRVL PRVL PRVL PRVL
VIS 10 >6 >6 >6 >6 >6 >6 >6 >6 >6 >6 >6 >6 >6
CIG 160 140 120 120 120 120 120 120 25 25 25 25 25 25
Cover BKN BKN BKN BKN BKN BKN BKN BKN OVC OVC OVC OVC OVC OVC
FltCat VFR VFR VFR VFR VFR VFR VFR VFR MVFR MVFR MVFR MVFR MVFR MVFR
WX -- -- -- -- -- -- -- -- -- -- -- -- -- --
WDir 50 350 330 330 310 310 310 310 VRB VRB VRB VRB VRB VRB
WSpd 9 11 12 12 10 10 10 10 5 5 5 5 5 5
WGst -- -- -- -- -- -- -- -- -- -- -- -- -- --

Raw TAF
KDEN 280107Z 2801/2906 04011KT P6SM FEW090 SCT140 BKN220
  FM280200 35011KT P6SM FEW080 BKN140
  FM280300 33012KT P6SM FEW060 SCT080 BKN120
  FM280500 31010KT P6SM SCT030 BKN120
  FM280900 VRB05KT P6SM SCT015 OVC025
  FM281500 01009KT P6SM SCT025 BKN040
  FM281800 04012KT P6SM VCTS SCT025CB OVC040
  PROB30 2820/2901 VRB20G30KT 5SM TSRA BKN025CB
  FM290300 33016KT P6SM VCSH SCT050 BKN080


Raw METAR
KDEN 280053Z 05009KT 10SM SCT100 BKN160 BKN220 24/06 A2982 RMK AO2 SLP018 T02390061
KDEN 272353Z 17008KT 10SM FEW100 SCT150 BKN220 28/02 A2980 RMK AO2 PK WND 19028/2254 WSHFT 2240 RAE07 TSE12 SLP008 P0000 60000 T02830017 10306 20244 55009
KDEN 272313Z 18004KT 10SM FEW100 BKN150 BKN220 26/03 A2981 RMK AO2 PK WND 19028/2254 WSHFT 2240 RAE07 TSE12 TS DSIPT VIRGA N P0000 T02560028
KDEN 272257Z 17011G29KT 10SM -TSRA SCT085CB BKN150 BKN220 27/01 A2980 RMK AO2 PK WND 19028/2254 WSHFT 2240 LTG DSNT SW FRQ LTGCCCG OHD AND SW-W TS OHD AND SW-W MOV N P0000 T02670011
KDEN 272253Z 20015G29KT 10SM -TSRA SCT085CB BKN150 BKN220 26/02 A2980 RMK AO2 PK WND 15036/2237 WSHFT 2201 LTG DSNT SW RAB39 TSB00E16B44 SLP008 FRQ LTGCCCG OHD AND SW-W TS OHD AND SW-W MOV N P0000 T02610022
KDEN 272244Z 22015G36KT 10SM -TSRA SCT085CB BKN150 BKN220 25/04 A2980 RMK AO2 PK WND 15036/2237 WSHFT 2201 LTG DSNT E AND SW RAB39 TSB00E16B44 CONS LTGCCCG SW-W TS SW-W MOV N P0000 T02500044

METAR Board
Radar Display
Forecast Discussion

FOR SITUATIONAL AWARENESS. NOT TO BE USED FOR FLIGHT PLANNING PURPOSES.